Terminal Aerodrome Forecast
Issued by NWS

Home | Current Version | Previous Version | Text Only | Print | Product List | Glossary Off
Versions: 1 2 3 4 5 6 7 8 9 10 11 12 13 14 15 16 17 18 19

000
FTUS43 KBIS 231700
TAFJMS
TAF
KJMS 231735Z 2318/2418 14027G35KT P6SM VCSH SCT020 BKN070
     FM232100 13020G27KT P6SM -SHRA SCT020 OVC045
     FM240100 13015G23KT P6SM -SHRA OVC025
     FM240900 25008KT P6SM SCT080=

USA.gov is the U.S. government's official web portal to all federal, state and local government web resources and services.